sensor_id;sensor_type;location;lat;lon;timestamp;P1;durP1;ratioP1;P2;durP2;ratioP2
1402;SDS011;696;48.546;9.896;2022-10-18T00:02:03;6.95;;;2.67;;
1402;SDS011;696;48.546;9.896;2022-10-18T00:04:28;12.20;;;2.80;;
1402;SDS011;696;48.546;9.896;2022-10-18T00:06:54;3.05;;;2.47;;
1402;SDS011;696;48.546;9.896;2022-10-18T00:09:19;4.72;;;2.92;;
1402;SDS011;696;48.546;9.896;2022-10-18T00:11:44;7.35;;;3.03;;
1402;SDS011;696;48.546;9.896;2022-10-18T00:14:10;25.67;;;3.00;;
1402;SDS011;696;48.546;9.896;2022-10-18T00:16:35;8.80;;;3.33;;
1402;SDS011;696;48.546;9.896;2022-10-18T00:19:00;10.85;;;3.20;;
1402;SDS011;696;48.546;9.896;2022-10-18T00:21:26;4.47;;;2.83;;
1402;SDS011;696;48.546;9.896;2022-10-18T00:23:51;7.47;;;3.25;;
1402;SDS011;696;48.546;9.896;2022-10-18T00:26:25;9.73;;;3.35;;
1402;SDS011;696;48.546;9.896;2022-10-18T00:28:52;6.50;;;3.03;;
1402;SDS011;696;48.546;9.896;2022-10-18T00:31:20;4.90;;;2.90;;
1402;SDS011;696;48.546;9.896;2022-10-18T00:33:49;7.32;;;2.92;;
1402;SDS011;696;48.546;9.896;2022-10-18T00:36:17;5.05;;;2.97;;
1402;SDS011;696;48.546;9.896;2022-10-18T00:38:43;6.28;;;3.10;;
1402;SDS011;696;48.546;9.896;2022-10-18T00:41:09;6.28;;;2.45;;
1402;SDS011;696;48.546;9.896;2022-10-18T00:46:34;5.93;;;3.08;;
1402;SDS011;696;48.546;9.896;2022-10-18T00:49:04;8.85;;;2.92;;
1402;SDS011;696;48.546;9.896;2022-10-18T00:51:33;5.25;;;2.63;;
1402;SDS011;696;48.546;9.896;2022-10-18T00:54:00;7.70;;;3.28;;
1402;SDS011;696;48.546;9.896;2022-10-18T00:56:26;14.00;;;3.40;;
1402;SDS011;696;48.546;9.896;2022-10-18T00:58:51;6.35;;;2.95;;
1402;SDS011;696;48.546;9.896;2022-10-18T01:01:17;8.13;;;3.00;;
1402;SDS011;696;48.546;9.896;2022-10-18T01:03:43;3.30;;;2.50;;
1402;SDS011;696;48.546;9.896;2022-10-18T01:06:08;4.80;;;2.70;;
1402;SDS011;696;48.546;9.896;2022-10-18T01:08:39;7.20;;;3.25;;
1402;SDS011;696;48.546;9.896;2022-10-18T01:32:27;7.85;;;2.55;;
1402;SDS011;696;48.546;9.896;2022-10-18T01:34:57;2.65;;;2.42;;
1402;SDS011;696;48.546;9.896;2022-10-18T01:37:25;8.55;;;2.67;;
1402;SDS011;696;48.546;9.896;2022-10-18T01:39:52;6.22;;;3.33;;
1402;SDS011;696;48.546;9.896;2022-10-18T01:42:19;4.78;;;3.13;;
1402;SDS011;696;48.546;9.896;2022-10-18T01:44:45;5.53;;;2.78;;
1402;SDS011;696;48.546;9.896;2022-10-18T01:47:12;3.72;;;3.03;;
1402;SDS011;696;48.546;9.896;2022-10-18T01:49:38;4.18;;;3.00;;
1402;SDS011;696;48.546;9.896;2022-10-18T01:52:04;13.63;;;3.38;;
1402;SDS011;696;48.546;9.896;2022-10-18T01:54:31;3.95;;;2.75;;
1402;SDS011;696;48.546;9.896;2022-10-18T02:02:16;4.43;;;2.80;;
1402;SDS011;696;48.546;9.896;2022-10-18T02:07:31;5.90;;;4.00;;
1402;SDS011;696;48.546;9.896;2022-10-18T02:10:24;9.88;;;4.00;;
1402;SDS011;696;48.546;9.896;2022-10-18T02:12:54;3.40;;;2.70;;
1402;SDS011;696;48.546;9.896;2022-10-18T02:15:22;3.60;;;2.92;;
1402;SDS011;696;48.546;9.896;2022-10-18T02:17:50;12.15;;;3.33;;
1402;SDS011;696;48.546;9.896;2022-10-18T02:20:17;4.28;;;2.83;;
1402;SDS011;696;48.546;9.896;2022-10-18T02:22:44;10.63;;;3.85;;
1402;SDS011;696;48.546;9.896;2022-10-18T02:25:13;5.97;;;3.08;;
1402;SDS011;696;48.546;9.896;2022-10-18T02:27:44;4.45;;;3.20;;
1402;SDS011;696;48.546;9.896;2022-10-18T02:30:10;6.70;;;2.88;;
1402;SDS011;696;48.546;9.896;2022-10-18T02:35:23;12.10;;;3.20;;
1402;SDS011;696;48.546;9.896;2022-10-18T02:37:50;5.78;;;4.45;;
1402;SDS011;696;48.546;9.896;2022-10-18T02:40:18;6.05;;;3.47;;
1402;SDS011;696;48.546;9.896;2022-10-18T02:42:45;7.00;;;3.85;;
1402;SDS011;696;48.546;9.896;2022-10-18T02:45:12;13.77;;;3.70;;
1402;SDS011;696;48.546;9.896;2022-10-18T02:47:38;8.85;;;3.42;;
1402;SDS011;696;48.546;9.896;2022-10-18T02:50:04;7.53;;;3.30;;
1402;SDS011;696;48.546;9.896;2022-10-18T02:52:29;6.07;;;3.10;;
1402;SDS011;696;48.546;9.896;2022-10-18T02:54:55;10.82;;;3.20;;
1402;SDS011;696;48.546;9.896;2022-10-18T02:57:20;9.80;;;4.00;;
1402;SDS011;696;48.546;9.896;2022-10-18T02:59:45;10.43;;;3.33;;
1402;SDS011;696;48.546;9.896;2022-10-18T03:02:11;4.38;;;3.47;;
1402;SDS011;696;48.546;9.896;2022-10-18T03:04:36;11.82;;;3.20;;
1402;SDS011;696;48.546;9.896;2022-10-18T03:07:01;4.13;;;2.75;;
1402;SDS011;696;48.546;9.896;2022-10-18T03:09:27;7.22;;;3.70;;
1402;SDS011;696;48.546;9.896;2022-10-18T03:11:52;6.63;;;3.15;;
1402;SDS011;696;48.546;9.896;2022-10-18T03:14:17;4.30;;;2.90;;
1402;SDS011;696;48.546;9.896;2022-10-18T03:16:43;5.03;;;2.88;;
1402;SDS011;696;48.546;9.896;2022-10-18T03:19:08;10.88;;;3.45;;
1402;SDS011;696;48.546;9.896;2022-10-18T03:21:34;11.73;;;2.90;;
1402;SDS011;696;48.546;9.896;2022-10-18T03:23:59;5.38;;;3.10;;
1402;SDS011;696;48.546;9.896;2022-10-18T03:26:24;8.57;;;2.95;;
1402;SDS011;696;48.546;9.896;2022-10-18T03:28:50;7.55;;;3.80;;
1402;SDS011;696;48.546;9.896;2022-10-18T03:31:15;6.30;;;3.28;;
1402;SDS011;696;48.546;9.896;2022-10-18T03:33:41;12.18;;;4.03;;
1402;SDS011;696;48.546;9.896;2022-10-18T03:36:06;4.90;;;3.60;;
1402;SDS011;696;48.546;9.896;2022-10-18T03:38:32;7.72;;;3.47;;
1402;SDS011;696;48.546;9.896;2022-10-18T03:40:57;8.90;;;4.32;;
1402;SDS011;696;48.546;9.896;2022-10-18T03:43:22;5.90;;;3.60;;
1402;SDS011;696;48.546;9.896;2022-10-18T03:45:48;12.88;;;3.80;;
1402;SDS011;696;48.546;9.896;2022-10-18T03:48:13;10.25;;;4.18;;
1402;SDS011;696;48.546;9.896;2022-10-18T03:50:39;8.73;;;3.97;;
1402;SDS011;696;48.546;9.896;2022-10-18T03:53:04;7.85;;;4.07;;
1402;SDS011;696;48.546;9.896;2022-10-18T03:55:30;11.30;;;4.07;;
1402;SDS011;696;48.546;9.896;2022-10-18T03:57:55;10.88;;;3.90;;
1402;SDS011;696;48.546;9.896;2022-10-18T04:00:20;13.43;;;3.75;;
1402;SDS011;696;48.546;9.896;2022-10-18T04:02:46;4.85;;;3.30;;
1402;SDS011;696;48.546;9.896;2022-10-18T04:05:12;11.23;;;4.15;;
1402;SDS011;696;48.546;9.896;2022-10-18T04:07:38;4.75;;;4.13;;
1402;SDS011;696;48.546;9.896;2022-10-18T04:10:03;16.17;;;4.40;;
1402;SDS011;696;48.546;9.896;2022-10-18T04:12:29;21.95;;;6.13;;
1402;SDS011;696;48.546;9.896;2022-10-18T04:14:54;8.20;;;6.95;;
1402;SDS011;696;48.546;9.896;2022-10-18T04:17:19;24.83;;;5.53;;
1402;SDS011;696;48.546;9.896;2022-10-18T04:19:45;9.63;;;4.07;;
1402;SDS011;696;48.546;9.896;2022-10-18T04:22:10;6.65;;;4.28;;
1402;SDS011;696;48.546;9.896;2022-10-18T04:24:36;13.00;;;4.07;;
1402;SDS011;696;48.546;9.896;2022-10-18T04:27:02;6.63;;;4.10;;
1402;SDS011;696;48.546;9.896;2022-10-18T04:29:28;6.03;;;3.33;;
1402;SDS011;696;48.546;9.896;2022-10-18T04:31:54;3.83;;;2.95;;
1402;SDS011;696;48.546;9.896;2022-10-18T04:34:19;11.57;;;3.47;;
1402;SDS011;696;48.546;9.896;2022-10-18T04:36:44;6.63;;;3.42;;
1402;SDS011;696;48.546;9.896;2022-10-18T04:39:10;5.28;;;2.85;;
1402;SDS011;696;48.546;9.896;2022-10-18T04:41:35;14.65;;;3.65;;
1402;SDS011;696;48.546;9.896;2022-10-18T04:44:00;5.97;;;3.08;;
1402;SDS011;696;48.546;9.896;2022-10-18T04:46:26;5.05;;;2.83;;
1402;SDS011;696;48.546;9.896;2022-10-18T04:48:51;5.85;;;3.28;;
1402;SDS011;696;48.546;9.896;2022-10-18T04:51:16;6.68;;;3.78;;
1402;SDS011;696;48.546;9.896;2022-10-18T04:53:42;8.60;;;2.92;;
1402;SDS011;696;48.546;9.896;2022-10-18T04:56:07;3.58;;;3.20;;
1402;SDS011;696;48.546;9.896;2022-10-18T04:58:33;6.85;;;4.15;;
1402;SDS011;696;48.546;9.896;2022-10-18T05:00:58;11.75;;;3.95;;
1402;SDS011;696;48.546;9.896;2022-10-18T05:03:23;8.15;;;3.50;;
1402;SDS011;696;48.546;9.896;2022-10-18T05:05:49;8.27;;;4.10;;
1402;SDS011;696;48.546;9.896;2022-10-18T05:08:14;16.10;;;4.70;;
1402;SDS011;696;48.546;9.896;2022-10-18T05:10:39;7.53;;;4.65;;
1402;SDS011;696;48.546;9.896;2022-10-18T05:13:05;7.35;;;4.75;;
1402;SDS011;696;48.546;9.896;2022-10-18T05:15:30;18.48;;;4.20;;
1402;SDS011;696;48.546;9.896;2022-10-18T05:17:55;15.57;;;4.80;;
1402;SDS011;696;48.546;9.896;2022-10-18T05:20:21;7.10;;;4.05;;
1402;SDS011;696;48.546;9.896;2022-10-18T05:22:46;5.53;;;4.18;;
1402;SDS011;696;48.546;9.896;2022-10-18T05:25:12;9.70;;;4.22;;
1402;SDS011;696;48.546;9.896;2022-10-18T05:27:37;8.52;;;4.30;;
1402;SDS011;696;48.546;9.896;2022-10-18T05:30:02;6.60;;;4.00;;
1402;SDS011;696;48.546;9.896;2022-10-18T05:32:28;7.30;;;4.00;;
1402;SDS011;696;48.546;9.896;2022-10-18T05:34:53;14.77;;;3.80;;
1402;SDS011;696;48.546;9.896;2022-10-18T05:37:19;9.43;;;3.45;;
1402;SDS011;696;48.546;9.896;2022-10-18T05:39:45;4.90;;;3.47;;
1402;SDS011;696;48.546;9.896;2022-10-18T05:42:10;8.75;;;4.80;;
1402;SDS011;696;48.546;9.896;2022-10-18T05:44:36;6.03;;;5.05;;
1402;SDS011;696;48.546;9.896;2022-10-18T05:47:01;10.40;;;5.40;;
1402;SDS011;696;48.546;9.896;2022-10-18T05:49:26;12.77;;;5.00;;
1402;SDS011;696;48.546;9.896;2022-10-18T05:51:52;13.25;;;5.30;;
1402;SDS011;696;48.546;9.896;2022-10-18T05:54:17;10.30;;;4.30;;
1402;SDS011;696;48.546;9.896;2022-10-18T05:56:42;9.02;;;3.67;;
1402;SDS011;696;48.546;9.896;2022-10-18T05:59:08;10.15;;;4.28;;
1402;SDS011;696;48.546;9.896;2022-10-18T06:01:36;10.23;;;3.63;;
1402;SDS011;696;48.546;9.896;2022-10-18T06:04:02;15.70;;;4.20;;
1402;SDS011;696;48.546;9.896;2022-10-18T06:06:28;3.90;;;3.53;;
1402;SDS011;696;48.546;9.896;2022-10-18T06:08:54;4.75;;;3.55;;
1402;SDS011;696;48.546;9.896;2022-10-18T06:11:20;9.45;;;4.65;;
1402;SDS011;696;48.546;9.896;2022-10-18T06:13:46;7.82;;;4.22;;
1402;SDS011;696;48.546;9.896;2022-10-18T06:16:13;6.13;;;4.38;;
1402;SDS011;696;48.546;9.896;2022-10-18T06:18:39;11.23;;;5.40;;
1402;SDS011;696;48.546;9.896;2022-10-18T06:21:05;18.10;;;8.05;;
1402;SDS011;696;48.546;9.896;2022-10-18T06:23:31;14.02;;;7.72;;
1402;SDS011;696;48.546;9.896;2022-10-18T06:25:57;7.55;;;6.25;;
1402;SDS011;696;48.546;9.896;2022-10-18T06:28:26;14.15;;;7.25;;
1402;SDS011;696;48.546;9.896;2022-10-18T06:30:52;11.32;;;7.03;;
1402;SDS011;696;48.546;9.896;2022-10-18T06:33:17;13.88;;;8.18;;
1402;SDS011;696;48.546;9.896;2022-10-18T06:35:42;18.15;;;8.32;;
1402;SDS011;696;48.546;9.896;2022-10-18T06:38:08;17.80;;;9.32;;
1402;SDS011;696;48.546;9.896;2022-10-18T06:40:33;12.18;;;7.97;;
1402;SDS011;696;48.546;9.896;2022-10-18T06:43:02;17.65;;;8.02;;
1402;SDS011;696;48.546;9.896;2022-10-18T06:45:30;13.70;;;7.05;;
1402;SDS011;696;48.546;9.896;2022-10-18T06:47:56;12.88;;;7.25;;
1402;SDS011;696;48.546;9.896;2022-10-18T06:50:22;13.65;;;7.15;;
1402;SDS011;696;48.546;9.896;2022-10-18T06:52:47;9.45;;;6.53;;
1402;SDS011;696;48.546;9.896;2022-10-18T06:55:15;11.73;;;6.80;;
1402;SDS011;696;48.546;9.896;2022-10-18T06:57:40;8.85;;;6.55;;
1402;SDS011;696;48.546;9.896;2022-10-18T07:00:06;14.18;;;7.20;;
1402;SDS011;696;48.546;9.896;2022-10-18T07:02:32;13.93;;;7.35;;
1402;SDS011;696;48.546;9.896;2022-10-18T07:04:57;14.40;;;6.72;;
1402;SDS011;696;48.546;9.896;2022-10-18T07:07:22;12.75;;;6.75;;
1402;SDS011;696;48.546;9.896;2022-10-18T07:09:48;12.82;;;6.68;;
1402;SDS011;696;48.546;9.896;2022-10-18T07:12:13;8.18;;;5.57;;
1402;SDS011;696;48.546;9.896;2022-10-18T07:14:41;8.30;;;5.75;;
1402;SDS011;696;48.546;9.896;2022-10-18T07:17:07;9.32;;;6.28;;
1402;SDS011;696;48.546;9.896;2022-10-18T07:19:32;6.78;;;5.10;;
1402;SDS011;696;48.546;9.896;2022-10-18T07:21:57;18.42;;;8.73;;
1402;SDS011;696;48.546;9.896;2022-10-18T07:24:23;12.13;;;7.95;;
1402;SDS011;696;48.546;9.896;2022-10-18T07:26:48;8.93;;;7.38;;
1402;SDS011;696;48.546;9.896;2022-10-18T07:29:13;12.73;;;7.57;;
1402;SDS011;696;48.546;9.896;2022-10-18T07:31:39;13.88;;;8.27;;
1402;SDS011;696;48.546;9.896;2022-10-18T07:34:05;15.60;;;7.82;;
1402;SDS011;696;48.546;9.896;2022-10-18T07:38:59;13.98;;;7.55;;
1402;SDS011;696;48.546;9.896;2022-10-18T07:41:24;8.27;;;7.35;;
1402;SDS011;696;48.546;9.896;2022-10-18T07:43:50;11.68;;;7.22;;
1402;SDS011;696;48.546;9.896;2022-10-18T07:46:17;12.68;;;6.80;;
1402;SDS011;696;48.546;9.896;2022-10-18T07:48:43;6.90;;;5.72;;
1402;SDS011;696;48.546;9.896;2022-10-18T07:51:08;9.30;;;5.05;;
1402;SDS011;696;48.546;9.896;2022-10-18T07:53:34;9.27;;;5.38;;
1402;SDS011;696;48.546;9.896;2022-10-18T07:56:01;10.43;;;5.85;;
1402;SDS011;696;48.546;9.896;2022-10-18T07:58:27;7.43;;;5.30;;
1402;SDS011;696;48.546;9.896;2022-10-18T08:00:52;9.23;;;5.45;;
1402;SDS011;696;48.546;9.896;2022-10-18T08:03:18;11.65;;;5.88;;
1402;SDS011;696;48.546;9.896;2022-10-18T08:05:49;14.23;;;5.63;;
1402;SDS011;696;48.546;9.896;2022-10-18T08:08:15;23.30;;;5.78;;
1402;SDS011;696;48.546;9.896;2022-10-18T08:10:41;11.40;;;5.70;;
1402;SDS011;696;48.546;9.896;2022-10-18T08:13:06;9.48;;;4.90;;
1402;SDS011;696;48.546;9.896;2022-10-18T08:15:32;13.60;;;6.50;;
1402;SDS011;696;48.546;9.896;2022-10-18T08:17:57;8.18;;;5.22;;
1402;SDS011;696;48.546;9.896;2022-10-18T08:20:22;11.93;;;5.95;;
1402;SDS011;696;48.546;9.896;2022-10-18T08:22:48;10.50;;;5.82;;
1402;SDS011;696;48.546;9.896;2022-10-18T08:25:15;11.82;;;5.28;;
1402;SDS011;696;48.546;9.896;2022-10-18T08:27:40;9.02;;;5.32;;
1402;SDS011;696;48.546;9.896;2022-10-18T08:30:06;10.73;;;5.35;;
1402;SDS011;696;48.546;9.896;2022-10-18T08:32:33;8.95;;;4.80;;
1402;SDS011;696;48.546;9.896;2022-10-18T08:34:58;12.57;;;5.07;;
1402;SDS011;696;48.546;9.896;2022-10-18T08:37:24;8.38;;;4.85;;
1402;SDS011;696;48.546;9.896;2022-10-18T08:39:49;8.25;;;4.65;;
1402;SDS011;696;48.546;9.896;2022-10-18T08:42:18;5.70;;;4.40;;
1402;SDS011;696;48.546;9.896;2022-10-18T08:45:05;9.25;;;3.63;;
1402;SDS011;696;48.546;9.896;2022-10-18T08:47:34;9.85;;;5.38;;
1402;SDS011;696;48.546;9.896;2022-10-18T08:50:05;6.75;;;4.40;;
1402;SDS011;696;48.546;9.896;2022-10-18T08:57:41;9.35;;;4.68;;
1402;SDS011;696;48.546;9.896;2022-10-18T09:00:13;5.93;;;4.32;;
1402;SDS011;696;48.546;9.896;2022-10-18T09:05:20;4.68;;;3.50;;
1402;SDS011;696;48.546;9.896;2022-10-18T09:08:02;7.65;;;3.88;;
1402;SDS011;696;48.546;9.896;2022-10-18T09:13:23;5.78;;;2.78;;
1402;SDS011;696;48.546;9.896;2022-10-18T09:15:56;6.15;;;2.67;;
1402;SDS011;696;48.546;9.896;2022-10-18T09:26:22;11.38;;;2.63;;
1402;SDS011;696;48.546;9.896;2022-10-18T09:29:00;13.38;;;2.92;;
1402;SDS011;696;48.546;9.896;2022-10-18T09:34:36;6.13;;;2.35;;
1402;SDS011;696;48.546;9.896;2022-10-18T09:37:02;8.75;;;2.50;;
1402;SDS011;696;48.546;9.896;2022-10-18T09:39:29;4.72;;;2.45;;
1402;SDS011;696;48.546;9.896;2022-10-18T09:41:58;11.23;;;2.70;;
1402;SDS011;696;48.546;9.896;2022-10-18T09:47:02;7.57;;;2.17;;
1402;SDS011;696;48.546;9.896;2022-10-18T09:49:35;13.90;;;2.65;;
1402;SDS011;696;48.546;9.896;2022-10-18T09:52:05;5.20;;;2.63;;
1402;SDS011;696;48.546;9.896;2022-10-18T09:54:39;10.52;;;2.55;;
1402;SDS011;696;48.546;9.896;2022-10-18T09:59:53;7.70;;;2.78;;
1402;SDS011;696;48.546;9.896;2022-10-18T10:02:19;11.57;;;2.95;;
1402;SDS011;696;48.546;9.896;2022-10-18T10:04:46;7.57;;;2.38;;
1402;SDS011;696;48.546;9.896;2022-10-18T10:07:34;7.13;;;2.35;;
1402;SDS011;696;48.546;9.896;2022-10-18T10:13:27;7.45;;;2.55;;
1402;SDS011;696;48.546;9.896;2022-10-18T10:20:52;8.63;;;2.35;;
1402;SDS011;696;48.546;9.896;2022-10-18T10:25:59;13.07;;;2.65;;
1402;SDS011;696;48.546;9.896;2022-10-18T10:28:27;7.70;;;2.80;;
1402;SDS011;696;48.546;9.896;2022-10-18T10:31:02;12.85;;;2.40;;
1402;SDS011;696;48.546;9.896;2022-10-18T10:33:45;13.10;;;2.55;;
1402;SDS011;696;48.546;9.896;2022-10-18T10:36:18;8.30;;;2.58;;
1402;SDS011;696;48.546;9.896;2022-10-18T10:38:44;5.78;;;2.95;;
1402;SDS011;696;48.546;9.896;2022-10-18T10:41:20;10.90;;;3.05;;
1402;SDS011;696;48.546;9.896;2022-10-18T10:43:46;8.00;;;3.35;;
1402;SDS011;696;48.546;9.896;2022-10-18T10:46:12;12.23;;;3.22;;
1402;SDS011;696;48.546;9.896;2022-10-18T10:48:47;6.85;;;2.85;;
1402;SDS011;696;48.546;9.896;2022-10-18T10:51:14;9.63;;;3.58;;
1402;SDS011;696;48.546;9.896;2022-10-18T10:54:02;6.00;;;3.22;;
1402;SDS011;696;48.546;9.896;2022-10-18T10:56:32;5.07;;;3.53;;
1402;SDS011;696;48.546;9.896;2022-10-18T10:59:05;8.38;;;4.05;;
1402;SDS011;696;48.546;9.896;2022-10-18T11:01:38;5.75;;;3.78;;
1402;SDS011;696;48.546;9.896;2022-10-18T11:09:30;9.93;;;3.60;;
1402;SDS011;696;48.546;9.896;2022-10-18T11:12:03;9.27;;;3.35;;
1402;SDS011;696;48.546;9.896;2022-10-18T11:14:35;10.20;;;3.33;;
1402;SDS011;696;48.546;9.896;2022-10-18T11:17:20;19.42;;;3.08;;
1402;SDS011;696;48.546;9.896;2022-10-18T11:20:12;9.70;;;3.22;;
1402;SDS011;696;48.546;9.896;2022-10-18T11:23:00;7.18;;;3.03;;
1402;SDS011;696;48.546;9.896;2022-10-18T11:25:36;9.73;;;3.50;;
1402;SDS011;696;48.546;9.896;2022-10-18T11:28:10;12.10;;;3.45;;
1402;SDS011;696;48.546;9.896;2022-10-18T11:36:15;8.35;;;2.80;;
1402;SDS011;696;48.546;9.896;2022-10-18T11:41:39;6.28;;;2.33;;
1402;SDS011;696;48.546;9.896;2022-10-18T11:57:42;12.25;;;2.03;;
1402;SDS011;696;48.546;9.896;2022-10-18T12:00:16;6.13;;;2.45;;
1402;SDS011;696;48.546;9.896;2022-10-18T12:05:37;14.77;;;2.10;;
1402;SDS011;696;48.546;9.896;2022-10-18T12:08:11;5.78;;;1.65;;
1402;SDS011;696;48.546;9.896;2022-10-18T12:10:40;11.50;;;2.13;;
1402;SDS011;696;48.546;9.896;2022-10-18T12:13:07;9.98;;;1.95;;
1402;SDS011;696;48.546;9.896;2022-10-18T12:15:37;7.72;;;1.48;;
1402;SDS011;696;48.546;9.896;2022-10-18T12:18:14;6.85;;;1.95;;
1402;SDS011;696;48.546;9.896;2022-10-18T12:20:48;5.07;;;1.90;;
1402;SDS011;696;48.546;9.896;2022-10-18T12:26:14;5.82;;;1.65;;
1402;SDS011;696;48.546;9.896;2022-10-18T12:28:46;5.43;;;1.85;;
1402;SDS011;696;48.546;9.896;2022-10-18T12:31:27;6.85;;;1.65;;
1402;SDS011;696;48.546;9.896;2022-10-18T12:33:55;2.05;;;1.45;;
1402;SDS011;696;48.546;9.896;2022-10-18T12:39:03;6.60;;;2.22;;
1402;SDS011;696;48.546;9.896;2022-10-18T12:41:33;5.88;;;2.00;;
1402;SDS011;696;48.546;9.896;2022-10-18T12:44:02;4.72;;;1.90;;
1402;SDS011;696;48.546;9.896;2022-10-18T12:46:46;4.13;;;1.92;;
1402;SDS011;696;48.546;9.896;2022-10-18T12:49:16;8.85;;;2.10;;
1402;SDS011;696;48.546;9.896;2022-10-18T12:51:48;6.97;;;2.72;;
1402;SDS011;696;48.546;9.896;2022-10-18T12:54:16;7.30;;;2.20;;
1402;SDS011;696;48.546;9.896;2022-10-18T12:56:44;6.88;;;2.00;;
1402;SDS011;696;48.546;9.896;2022-10-18T13:07:10;7.75;;;2.05;;
1402;SDS011;696;48.546;9.896;2022-10-18T13:20:41;7.90;;;1.80;;
1402;SDS011;696;48.546;9.896;2022-10-18T13:31:52;10.48;;;2.08;;
1402;SDS011;696;48.546;9.896;2022-10-18T13:34:31;8.07;;;2.40;;
1402;SDS011;696;48.546;9.896;2022-10-18T13:39:25;5.13;;;2.50;;
1402;SDS011;696;48.546;9.896;2022-10-18T14:06:40;7.80;;;3.38;;
1402;SDS011;696;48.546;9.896;2022-10-18T14:12:51;12.82;;;3.25;;
1402;SDS011;696;48.546;9.896;2022-10-18T14:14:58;7.80;;;3.13;;
1402;SDS011;696;48.546;9.896;2022-10-18T14:23:01;13.27;;;3.10;;
1402;SDS011;696;48.546;9.896;2022-10-18T14:25:32;7.13;;;3.47;;
1402;SDS011;696;48.546;9.896;2022-10-18T14:28:15;12.27;;;2.53;;
1402;SDS011;696;48.546;9.896;2022-10-18T14:30:57;8.55;;;3.03;;
1402;SDS011;696;48.546;9.896;2022-10-18T14:36:06;10.63;;;3.28;;
1402;SDS011;696;48.546;9.896;2022-10-18T14:38:33;13.18;;;3.80;;
1402;SDS011;696;48.546;9.896;2022-10-18T14:41:03;16.67;;;3.55;;
1402;SDS011;696;48.546;9.896;2022-10-18T14:43:38;5.38;;;3.30;;
1402;SDS011;696;48.546;9.896;2022-10-18T14:46:14;11.20;;;3.38;;
1402;SDS011;696;48.546;9.896;2022-10-18T14:51:18;19.10;;;3.97;;
1402;SDS011;696;48.546;9.896;2022-10-18T14:53:45;10.57;;;3.67;;
1402;SDS011;696;48.546;9.896;2022-10-18T14:56:22;8.80;;;3.70;;
1402;SDS011;696;48.546;9.896;2022-10-18T14:58:50;19.20;;;3.63;;
1402;SDS011;696;48.546;9.896;2022-10-18T15:01:17;8.85;;;3.65;;
1402;SDS011;696;48.546;9.896;2022-10-18T15:03:43;13.23;;;4.47;;
1402;SDS011;696;48.546;9.896;2022-10-18T15:06:18;14.35;;;3.88;;
1402;SDS011;696;48.546;9.896;2022-10-18T15:08:44;15.35;;;4.35;;
1402;SDS011;696;48.546;9.896;2022-10-18T15:11:12;15.07;;;4.50;;
1402;SDS011;696;48.546;9.896;2022-10-18T15:13:41;9.57;;;3.90;;
1402;SDS011;696;48.546;9.896;2022-10-18T15:16:16;6.25;;;3.63;;
1402;SDS011;696;48.546;9.896;2022-10-18T15:18:43;14.05;;;3.58;;
1402;SDS011;696;48.546;9.896;2022-10-18T15:23:52;8.82;;;3.58;;
1402;SDS011;696;48.546;9.896;2022-10-18T15:26:21;7.32;;;4.03;;
1402;SDS011;696;48.546;9.896;2022-10-18T15:28:50;13.98;;;3.92;;
1402;SDS011;696;48.546;9.896;2022-10-18T15:31:25;7.85;;;3.25;;
1402;SDS011;696;48.546;9.896;2022-10-18T15:34:06;9.32;;;3.67;;
1402;SDS011;696;48.546;9.896;2022-10-18T15:36:33;11.88;;;3.17;;
1402;SDS011;696;48.546;9.896;2022-10-18T15:39:07;10.88;;;3.38;;
1402;SDS011;696;48.546;9.896;2022-10-18T15:44:45;7.55;;;3.20;;
1402;SDS011;696;48.546;9.896;2022-10-18T15:58:01;21.05;;;3.40;;
1402;SDS011;696;48.546;9.896;2022-10-18T16:00:27;13.40;;;3.00;;
1402;SDS011;696;48.546;9.896;2022-10-18T16:02:53;9.30;;;3.50;;
1402;SDS011;696;48.546;9.896;2022-10-18T16:05:18;6.07;;;3.10;;
1402;SDS011;696;48.546;9.896;2022-10-18T16:07:45;12.18;;;3.10;;
1402;SDS011;696;48.546;9.896;2022-10-18T16:10:15;14.07;;;3.38;;
1402;SDS011;696;48.546;9.896;2022-10-18T16:12:41;9.43;;;2.60;;
1402;SDS011;696;48.546;9.896;2022-10-18T16:15:06;3.95;;;3.17;;
1402;SDS011;696;48.546;9.896;2022-10-18T16:17:32;7.30;;;3.28;;
1402;SDS011;696;48.546;9.896;2022-10-18T16:19:57;3.47;;;3.03;;
1402;SDS011;696;48.546;9.896;2022-10-18T16:22:22;7.53;;;2.85;;
1402;SDS011;696;48.546;9.896;2022-10-18T16:24:48;7.25;;;2.78;;
1402;SDS011;696;48.546;9.896;2022-10-18T16:27:13;7.20;;;3.22;;
1402;SDS011;696;48.546;9.896;2022-10-18T16:29:39;6.10;;;3.03;;
1402;SDS011;696;48.546;9.896;2022-10-18T16:32:05;6.65;;;3.15;;
1402;SDS011;696;48.546;9.896;2022-10-18T16:34:30;7.53;;;3.33;;
1402;SDS011;696;48.546;9.896;2022-10-18T16:36:56;3.90;;;2.70;;
1402;SDS011;696;48.546;9.896;2022-10-18T16:39:22;5.35;;;3.60;;
1402;SDS011;696;48.546;9.896;2022-10-18T16:41:48;10.27;;;3.03;;
1402;SDS011;696;48.546;9.896;2022-10-18T16:44:13;9.30;;;2.97;;
1402;SDS011;696;48.546;9.896;2022-10-18T16:46:40;8.73;;;3.50;;
1402;SDS011;696;48.546;9.896;2022-10-18T16:49:06;9.63;;;4.07;;
1402;SDS011;696;48.546;9.896;2022-10-18T16:51:31;4.60;;;3.65;;
1402;SDS011;696;48.546;9.896;2022-10-18T16:53:57;5.70;;;3.33;;
1402;SDS011;696;48.546;9.896;2022-10-18T16:56:26;8.77;;;5.20;;
1402;SDS011;696;48.546;9.896;2022-10-18T16:58:54;9.30;;;4.82;;
1402;SDS011;696;48.546;9.896;2022-10-18T17:01:21;8.05;;;5.65;;
1402;SDS011;696;48.546;9.896;2022-10-18T17:03:47;7.95;;;5.50;;
1402;SDS011;696;48.546;9.896;2022-10-18T17:06:16;9.90;;;5.00;;
1402;SDS011;696;48.546;9.896;2022-10-18T17:08:47;15.75;;;5.00;;
1402;SDS011;696;48.546;9.896;2022-10-18T17:11:13;9.60;;;5.03;;
1402;SDS011;696;48.546;9.896;2022-10-18T17:13:40;14.43;;;4.80;;
1402;SDS011;696;48.546;9.896;2022-10-18T17:16:05;13.75;;;4.97;;
1402;SDS011;696;48.546;9.896;2022-10-18T17:18:31;14.23;;;5.07;;
1402;SDS011;696;48.546;9.896;2022-10-18T17:20:57;6.32;;;5.38;;
1402;SDS011;696;48.546;9.896;2022-10-18T17:23:26;8.65;;;4.57;;
1402;SDS011;696;48.546;9.896;2022-10-18T17:25:51;13.13;;;5.13;;
1402;SDS011;696;48.546;9.896;2022-10-18T17:28:17;8.55;;;4.53;;
1402;SDS011;696;48.546;9.896;2022-10-18T17:30:44;19.75;;;4.78;;
1402;SDS011;696;48.546;9.896;2022-10-18T17:33:10;8.85;;;4.32;;
1402;SDS011;696;48.546;9.896;2022-10-18T17:35:36;12.30;;;4.45;;
1402;SDS011;696;48.546;9.896;2022-10-18T17:38:02;6.60;;;3.97;;
1402;SDS011;696;48.546;9.896;2022-10-18T17:40:28;8.25;;;4.05;;
1402;SDS011;696;48.546;9.896;2022-10-18T17:42:54;6.90;;;4.50;;
1402;SDS011;696;48.546;9.896;2022-10-18T17:45:19;10.43;;;4.28;;
1402;SDS011;696;48.546;9.896;2022-10-18T17:47:45;8.68;;;4.50;;
1402;SDS011;696;48.546;9.896;2022-10-18T17:50:11;6.57;;;4.28;;
1402;SDS011;696;48.546;9.896;2022-10-18T17:52:43;8.77;;;4.18;;
1402;SDS011;696;48.546;9.896;2022-10-18T17:55:09;7.78;;;3.70;;
1402;SDS011;696;48.546;9.896;2022-10-18T17:57:36;8.70;;;4.07;;
1402;SDS011;696;48.546;9.896;2022-10-18T18:00:03;12.75;;;3.40;;
1402;SDS011;696;48.546;9.896;2022-10-18T18:02:29;7.75;;;4.00;;
1402;SDS011;696;48.546;9.896;2022-10-18T18:04:55;12.15;;;3.92;;
1402;SDS011;696;48.546;9.896;2022-10-18T18:07:21;6.50;;;4.35;;
1402;SDS011;696;48.546;9.896;2022-10-18T18:09:46;11.07;;;4.00;;
1402;SDS011;696;48.546;9.896;2022-10-18T18:12:12;14.90;;;3.95;;
1402;SDS011;696;48.546;9.896;2022-10-18T18:14:37;4.18;;;3.33;;
1402;SDS011;696;48.546;9.896;2022-10-18T18:17:02;7.95;;;4.00;;
1402;SDS011;696;48.546;9.896;2022-10-18T18:19:28;4.45;;;4.03;;
1402;SDS011;696;48.546;9.896;2022-10-18T18:21:53;13.23;;;4.00;;
1402;SDS011;696;48.546;9.896;2022-10-18T18:24:19;9.95;;;4.40;;
1402;SDS011;696;48.546;9.896;2022-10-18T18:26:48;6.47;;;4.30;;
1402;SDS011;696;48.546;9.896;2022-10-18T18:29:20;6.22;;;4.45;;
1402;SDS011;696;48.546;9.896;2022-10-18T18:31:47;5.50;;;4.07;;
1402;SDS011;696;48.546;9.896;2022-10-18T18:34:13;11.70;;;4.13;;
1402;SDS011;696;48.546;9.896;2022-10-18T18:36:39;10.02;;;4.20;;
1402;SDS011;696;48.546;9.896;2022-10-18T18:39:04;5.47;;;4.82;;
1402;SDS011;696;48.546;9.896;2022-10-18T18:41:30;9.02;;;6.57;;
1402;SDS011;696;48.546;9.896;2022-10-18T18:44:02;13.38;;;5.72;;
1402;SDS011;696;48.546;9.896;2022-10-18T18:46:30;14.77;;;7.22;;